WetterOnline ( https://www.wetteronline.de )

Wetter aktuell Gattières

Aktuelles Wetter: Capo Mele (221m)

6-stündlich | Neueste Meldungen
Ortszeit Temperatur Wetter
Do, 22.10. 20:00 17.0° C bedeckt
Do, 22.10. 14:00 18.0° C bedeckt
Do, 22.10. 8:00 16.2° C wolkig
Do, 22.10. 2:00 15.6° C wolkig
Mi, 21.10. 20:00 16.2° C wolkig
Mi, 21.10. 14:00 16.2° C wolkig
Mi, 21.10. 8:00 14.8° C wolkig
Mi, 21.10. 2:00 14.4° C leicht bewölkt
Ortszeit Temperatur Wetter
Fr, 23.10. 0:00 17.0° C bedeckt
Do, 22.10. 23:55 17° C bewölkt
Do, 22.10. 23:00 17.0° C wolkig
Do, 22.10. 22:55 17° C bewölkt
Do, 22.10. 22:00 17.0° C bedeckt
Do, 22.10. 21:55 17° C bewölkt
Do, 22.10. 21:00 17.0° C bedeckt
Do, 22.10. 20:55 17° C bewölkt
Do, 22.10. 20:00 17.0° C bedeckt
Ortszeit Relative Feuchte Sichtweite
Do, 22.10. 20:00 96% 20 km
Do, 22.10. 14:00 84% 30 km
Do, 22.10. 8:00 82% 20 km
Do, 22.10. 2:00 85% 25 km
Mi, 21.10. 20:00 89% 25 km
Mi, 21.10. 14:00 86% 20 km
Mi, 21.10. 8:00 83% 20 km
Mi, 21.10. 2:00 78% 20 km
Ortszeit Relative Feuchte Sichtweite
Fr, 23.10. 0:00 95% 20 km
Do, 22.10. 23:55 94% >10 km
Do, 22.10. 23:00 96% 20 km
Do, 22.10. 22:55 94% >10 km
Do, 22.10. 22:00 96% 20 km
Do, 22.10. 21:55 94% >10 km
Do, 22.10. 21:00 98% 20 km
Do, 22.10. 20:55 100% >10 km
Do, 22.10. 20:00 96% 20 km
Ortszeit Niederschlagsmenge Niederschlagsart
Do, 22.10. 20:00 0.1 l/m2 in 12 Std. -
Do, 22.10. 14:00 0.1 l/m2 in 6 Std. Regen
Do, 22.10. 8:00 0.0 l/m2 in 12 Std. -
Do, 22.10. 2:00 0.0 l/m2 in 6 Std. -
Mi, 21.10. 20:00 0.0 l/m2 in 12 Std. -
Mi, 21.10. 14:00 0.0 l/m2 in 6 Std. -
Mi, 21.10. 8:00 0.0 l/m2 in 12 Std. -
Mi, 21.10. 2:00 0.0 l/m2 in 6 Std. -
Ortszeit Niederschlagsmenge Niederschlagsart
Fr, 23.10. 0:00 keine Meldung -
Do, 22.10. 23:55 keine Meldung -
Do, 22.10. 23:00 keine Meldung -
Do, 22.10. 22:55 keine Meldung -
Do, 22.10. 22:00 keine Meldung -
Do, 22.10. 21:55 keine Meldung -
Do, 22.10. 21:00 keine Meldung -
Do, 22.10. 20:55 keine Meldung -
Do, 22.10. 20:00 keine Meldung -
Ortszeit Stärke Spitze Richtung
km/h Bft. km/h Grad Sektor
Do, 22.10. 20:00 26 4 - 40° NO
Do, 22.10. 14:00 22 4 - 40° NO
Do, 22.10. 8:00 26 4 - 20° N
Do, 22.10. 2:00 19 3 - 30° NO
Mi, 21.10. 20:00 31 5 - 60° NO
Mi, 21.10. 14:00 31 5 - 80° O
Mi, 21.10. 8:00 17 3 - 40° NO
Mi, 21.10. 2:00 20 4 - 10° N
Ortszeit Stärke Spitze Richtung
km/h Bft. km/h Grad Sektor
Fr, 23.10. 0:00 22 4 - 30° NO
Do, 22.10. 23:55 22 4 - 30° NO
Do, 22.10. 23:00 24 4 - 30° NO
Do, 22.10. 22:55 24 4 - 30° NO
Do, 22.10. 22:00 24 4 - 20° N
Do, 22.10. 21:55 24 4 - 20° N
Do, 22.10. 21:00 26 4 - 30° NO
Do, 22.10. 20:55 26 4 - 30° NO
Do, 22.10. 20:00 26 4 - 40° NO
Ortszeit Untergrenze Bedeckung Gattung
total tief tief mittel hoch
Do, 22.10. 20:00 450 m 8/8 8/8 Cu - -
Do, 22.10. 14:00 600 m 8/8 8/8 Cu - -
Do, 22.10. 8:00 600 m 7/8 4/8 Cu Ac -
Do, 22.10. 2:00 600 m 6/8 2/8 Cu Ac -
Mi, 21.10. 20:00 600 m 6/8 6/8 Cu - -
Mi, 21.10. 14:00 600 m 6/8 5/8 Cu Ac -
Mi, 21.10. 8:00 600 m 6/8 2/8 Cu Ac -
Mi, 21.10. 2:00 2700 m 3/8 3/8 - Ac -
Ortszeit Bedeckungsgrad in Achtel und Wolkenuntergrenze
Fr, 23.10. 0:00 5(450m) 6(600m)
Do, 22.10. 23:55 5-7(450m) 5-7(600m)
Do, 22.10. 23:00 3(450m) 5(600m)
Do, 22.10. 22:55 3-4(450m) 5-7(600m)
Do, 22.10. 22:00 5(450m) 6(750m)
Do, 22.10. 21:55 5-7(450m) 5-7(750m)
Do, 22.10. 21:00 5(450m) 6(600m)
Do, 22.10. 20:55 5-7(450m) 5-7(600m)
Do, 22.10. 20:00 5(450m) 6(600m)
Ortszeit Luftdruck NN (hPa) Tendenz (hPa in 3 Std.)
Do, 22.10. 20:00 1023 - 0,4
Do, 22.10. 14:00 1024 + 0,3
Do, 22.10. 8:00 1023 - 0,3
Do, 22.10. 2:00 1024 + 0,2
Mi, 21.10. 20:00 1023 - 0,1
Mi, 21.10. 14:00 1024 + 0,2
Mi, 21.10. 8:00 1023 - 0,4
Mi, 21.10. 2:00 1025 0,0
Ortszeit Luftdruck NN (hPa) Tendenz (hPa in 3 Std.)
Fr, 23.10. 0:00 1023 - 0,1
Do, 22.10. 23:55 1023 keine Meldung
Do, 22.10. 23:00 1023 + 0,5
Do, 22.10. 22:55 1023 keine Meldung
Do, 22.10. 22:00 1023 + 0,8
Do, 22.10. 21:55 1023 keine Meldung
Do, 22.10. 21:00 1023 + 0,4
Do, 22.10. 20:55 1023 keine Meldung
Do, 22.10. 20:00 1023 - 0,4
Ortszeit Schneehöhe (cm)
Do, 22.10. 20:00 -
Do, 22.10. 14:00 -
Do, 22.10. 8:00 0
Do, 22.10. 2:00 -
Mi, 21.10. 20:00 -
Mi, 21.10. 14:00 -
Mi, 21.10. 8:00 0
Mi, 21.10. 2:00 -
Ortszeit Schneehöhe (cm)
Fr, 23.10. 0:00 -
Do, 22.10. 23:55 -
Do, 22.10. 23:00 -
Do, 22.10. 22:55 -
Do, 22.10. 22:00 -
Do, 22.10. 21:55 -
Do, 22.10. 21:00 -
Do, 22.10. 20:55 -
Do, 22.10. 20:00 -
Link zu dieser Seite / Seite empfehlen

Das Wetter in ...